TAF KVCT
KVCT 280520Z 2806/2906 35005KT 6SM -RA BR SCT006 OVC020 FM280800 34004KT 4SM -DZ BR OVC004 FM281300 35005KT P6SM OVC010 FM281800 36007KT P6SM FEW015 SCT035=
METAR KVCT
WC KVCT
WS KVCT
WV KVCT